createdAt,value
2022-11-10T00:03:14.375Z,48.96
2022-11-10T00:13:15.747Z,48.93
2022-11-10T00:23:17.116Z,48.93
2022-11-10T00:33:18.944Z,48.98
2022-11-10T00:43:26.218Z,48.93
2022-11-10T00:53:28.160Z,48.90
2022-11-10T01:03:29.546Z,49.11
2022-11-10T01:13:31.056Z,49.15
2022-11-10T01:23:32.599Z,49.15
2022-11-10T01:33:34.120Z,49.20
2022-11-10T01:43:35.610Z,49.14
2022-11-10T01:53:38.795Z,49.45
2022-11-10T02:03:45.184Z,49.37
2022-11-10T02:13:46.645Z,49.32
2022-11-10T02:23:54.277Z,49.44
2022-11-10T02:33:55.714Z,49.46
2022-11-10T02:43:57.122Z,49.46
2022-11-10T02:53:58.566Z,49.45
2022-11-10T03:03:59.938Z,49.50
2022-11-10T03:14:02.578Z,49.43
2022-11-10T03:24:04.520Z,49.40
2022-11-10T03:34:06.009Z,49.36
2022-11-10T03:44:07.534Z,49.56
2022-11-10T03:54:08.992Z,49.58
2022-11-10T04:04:30.641Z,49.64
2022-11-10T04:14:50.585Z,49.70
2022-11-10T04:24:51.992Z,49.48
2022-11-10T04:34:53.509Z,49.65
2022-11-10T04:44:54.964Z,49.93
2022-11-10T04:54:56.486Z,49.74
2022-11-10T05:04:58.008Z,49.76
2022-11-10T05:14:59.542Z,49.82
2022-11-10T05:25:01.027Z,49.79
2022-11-10T05:35:02.528Z,49.74
2022-11-10T05:45:04.221Z,49.72
2022-11-10T05:55:05.783Z,49.84
2022-11-10T06:05:07.635Z,49.73
2022-11-10T06:15:10.052Z,49.88
2022-11-10T06:25:11.556Z,49.86
2022-11-10T06:35:13.033Z,49.89
2022-11-10T06:45:14.518Z,49.96
2022-11-10T06:55:15.993Z,49.86
2022-11-10T07:05:17.438Z,49.82
2022-11-10T07:15:18.926Z,49.75
2022-11-10T07:25:20.306Z,49.47
2022-11-10T07:35:21.813Z,49.56
2022-11-10T07:45:23.430Z,49.31
2022-11-10T07:55:24.819Z,48.92
2022-11-10T08:05:26.289Z,47.81
2022-11-10T08:15:28.130Z,47.12
2022-11-10T08:25:34.508Z,46.63
2022-11-10T08:35:38.233Z,45.97
2022-11-10T08:45:41.133Z,45.55
2022-11-10T08:55:42.980Z,45.09
2022-11-10T09:05:44.511Z,44.74
2022-11-10T09:15:46.037Z,44.66
2022-11-10T09:25:51.957Z,44.54
2022-11-10T09:35:57.415Z,44.46
2022-11-10T09:46:00.157Z,44.69
2022-11-10T09:56:03.060Z,44.87
2022-11-10T10:06:10.956Z,45.15
2022-11-10T10:16:31.130Z,45.15
2022-11-10T10:26:33.963Z,44.96
2022-11-10T10:36:35.356Z,44.99
2022-11-10T10:46:48.215Z,45.17
2022-11-10T10:56:49.597Z,45.08
2022-11-10T11:06:59.287Z,45.29
2022-11-10T11:17:21.199Z,45.45
2022-11-10T11:27:28.500Z,45.47
2022-11-10T11:37:36.939Z,45.35
2022-11-10T11:48:06.162Z,45.47
2022-11-10T11:58:35.656Z,45.65
2022-11-10T12:08:43.141Z,45.70
2022-11-10T12:18:52.946Z,45.97
2022-11-10T12:29:09.891Z,45.94
2022-11-10T12:39:20.804Z,45.91
2022-11-10T12:49:32.180Z,46.26
2022-11-10T12:59:34.541Z,46.44
2022-11-10T13:09:37.714Z,46.50
2022-11-10T13:19:40.065Z,46.62
2022-11-10T13:29:47.208Z,46.69
2022-11-10T13:39:48.638Z,46.76
2022-11-10T13:50:13.959Z,46.96
2022-11-10T14:00:17.956Z,47.00
2022-11-10T14:10:23.355Z,46.98
2022-11-10T14:20:29.244Z,47.19
2022-11-10T14:30:33.273Z,47.28
2022-11-10T14:40:34.675Z,47.36
2022-11-10T14:50:36.227Z,47.34
2022-11-10T15:00:38.551Z,47.33
2022-11-10T15:10:39.756Z,47.62
2022-11-10T15:20:41.289Z,47.75
2022-11-10T15:30:57.071Z,47.81
2022-11-10T15:41:09.248Z,48.05
2022-11-10T15:51:12.141Z,48.20
2022-11-10T16:01:13.991Z,48.17
2022-11-10T16:11:17.527Z,48.22
2022-11-10T16:21:20.814Z,48.32
2022-11-10T16:31:22.410Z,48.42
2022-11-10T16:41:23.806Z,48.52
2022-11-10T16:51:37.526Z,48.67
2022-11-10T17:01:39.253Z,48.77
2022-11-10T17:11:40.666Z,48.95
2022-11-10T17:21:42.053Z,48.94
2022-11-10T17:31:43.996Z,49.08
2022-11-10T17:41:45.452Z,49.09
2022-11-10T17:51:46.823Z,49.13
2022-11-10T18:01:48.337Z,49.26
2022-11-10T18:11:49.787Z,49.37
2022-11-10T18:21:51.180Z,49.47
2022-11-10T18:31:52.718Z,49.52
2022-11-10T18:41:54.270Z,49.55
2022-11-10T18:51:55.879Z,49.54
2022-11-10T19:01:57.541Z,49.63
2022-11-10T19:11:58.987Z,49.50
2022-11-10T19:22:00.625Z,49.71
2022-11-10T19:32:02.084Z,49.50
2022-11-10T19:42:03.514Z,49.66
2022-11-10T19:52:04.943Z,49.75
2022-11-10T20:02:06.456Z,49.63
2022-11-10T20:12:08.021Z,49.56
2022-11-10T20:22:12.498Z,49.75
2022-11-10T20:32:14.299Z,49.89
2022-11-10T20:42:15.688Z,49.93
2022-11-10T20:52:17.086Z,49.82
2022-11-10T21:02:18.478Z,49.86
2022-11-10T21:12:38.168Z,50.02
2022-11-10T21:22:39.797Z,50.23
2022-11-10T21:32:41.179Z,50.17
2022-11-10T21:42:42.700Z,50.32
2022-11-10T21:52:44.081Z,50.42
2022-11-10T22:02:45.454Z,50.15
2022-11-10T22:13:05.571Z,50.37
2022-11-10T22:23:06.969Z,50.25
2022-11-10T22:33:27.139Z,50.23
2022-11-10T22:43:46.731Z,50.29
2022-11-10T22:53:48.359Z,50.40
2022-11-10T23:03:49.811Z,50.42
2022-11-10T23:13:51.303Z,50.50
2022-11-10T23:23:53.528Z,50.18
2022-11-10T23:33:55.624Z,50.27
2022-11-10T23:43:57.248Z,50.31
2022-11-10T23:53:58.702Z,50.30
